sensor_id;sensor_type;location;lat;lon;timestamp;temperature;humidity
10459;DHT22;5277;48.722;8.736;2022-08-03T00:01:39;19.00;92.70
10459;DHT22;5277;48.722;8.736;2022-08-03T00:04:06;19.00;92.90
10459;DHT22;5277;48.722;8.736;2022-08-03T00:06:32;19.00;92.50
10459;DHT22;5277;48.722;8.736;2022-08-03T00:08:58;19.00;92.90
10459;DHT22;5277;48.722;8.736;2022-08-03T00:11:24;18.90;93.10
10459;DHT22;5277;48.722;8.736;2022-08-03T00:13:50;18.90;93.10
10459;DHT22;5277;48.722;8.736;2022-08-03T00:16:16;18.90;93.10
10459;DHT22;5277;48.722;8.736;2022-08-03T00:18:42;18.80;93.40
10459;DHT22;5277;48.722;8.736;2022-08-03T00:21:08;18.80;93.50
10459;DHT22;5277;48.722;8.736;2022-08-03T00:23:34;18.80;93.70
10459;DHT22;5277;48.722;8.736;2022-08-03T00:26:00;18.70;93.60
10459;DHT22;5277;48.722;8.736;2022-08-03T00:28:26;18.70;93.40
10459;DHT22;5277;48.722;8.736;2022-08-03T00:30:52;18.60;93.90
10459;DHT22;5277;48.722;8.736;2022-08-03T00:33:18;18.60;94.10
10459;DHT22;5277;48.722;8.736;2022-08-03T00:35:44;18.60;94.10
10459;DHT22;5277;48.722;8.736;2022-08-03T00:38:30;18.50;94.00
10459;DHT22;5277;48.722;8.736;2022-08-03T00:40:56;18.60;94.40
10459;DHT22;5277;48.722;8.736;2022-08-03T00:43:24;18.50;94.20
10459;DHT22;5277;48.722;8.736;2022-08-03T00:45:51;18.50;94.50
10459;DHT22;5277;48.722;8.736;2022-08-03T00:48:16;18.40;94.40
10459;DHT22;5277;48.722;8.736;2022-08-03T00:50:42;18.40;94.40
10459;DHT22;5277;48.722;8.736;2022-08-03T00:53:11;18.40;94.40
10459;DHT22;5277;48.722;8.736;2022-08-03T00:55:38;18.30;94.70
10459;DHT22;5277;48.722;8.736;2022-08-03T00:58:04;18.30;94.70
10459;DHT22;5277;48.722;8.736;2022-08-03T01:00:32;18.30;94.60
10459;DHT22;5277;48.722;8.736;2022-08-03T01:03:00;18.20;94.90
10459;DHT22;5277;48.722;8.736;2022-08-03T01:05:26;18.20;94.90
10459;DHT22;5277;48.722;8.736;2022-08-03T01:08:02;18.20;94.90
10459;DHT22;5277;48.722;8.736;2022-08-03T01:25:05;18.00;95.60
10459;DHT22;5277;48.722;8.736;2022-08-03T01:30:26;17.80;95.80
10459;DHT22;5277;48.722;8.736;2022-08-03T01:33:05;17.80;96.00
10459;DHT22;5277;48.722;8.736;2022-08-03T01:35:40;17.80;96.10
10459;DHT22;5277;48.722;8.736;2022-08-03T01:38:28;17.80;96.20
10459;DHT22;5277;48.722;8.736;2022-08-03T01:40:57;17.80;96.30
10459;DHT22;5277;48.722;8.736;2022-08-03T01:43:28;17.80;96.50
10459;DHT22;5277;48.722;8.736;2022-08-03T01:45:55;17.80;96.50
10459;DHT22;5277;48.722;8.736;2022-08-03T01:48:22;17.70;96.50
10459;DHT22;5277;48.722;8.736;2022-08-03T01:50:48;17.70;96.60
10459;DHT22;5277;48.722;8.736;2022-08-03T01:53:16;17.70;96.60
10459;DHT22;5277;48.722;8.736;2022-08-03T01:55:45;17.70;96.70
10459;DHT22;5277;48.722;8.736;2022-08-03T01:58:14;17.70;96.80
10459;DHT22;5277;48.722;8.736;2022-08-03T02:00:41;17.60;96.80
10459;DHT22;5277;48.722;8.736;2022-08-03T02:03:08;17.50;97.00
10459;DHT22;5277;48.722;8.736;2022-08-03T02:05:38;17.60;97.00
10459;DHT22;5277;48.722;8.736;2022-08-03T02:08:07;17.60;97.30
10459;DHT22;5277;48.722;8.736;2022-08-03T02:10:34;17.60;97.20
10459;DHT22;5277;48.722;8.736;2022-08-03T02:13:01;17.50;97.20
10459;DHT22;5277;48.722;8.736;2022-08-03T02:15:29;17.60;97.30
10459;DHT22;5277;48.722;8.736;2022-08-03T02:17:57;17.50;97.20
10459;DHT22;5277;48.722;8.736;2022-08-03T02:20:25;17.60;97.40
10459;DHT22;5277;48.722;8.736;2022-08-03T02:22:51;17.60;97.40
10459;DHT22;5277;48.722;8.736;2022-08-03T02:25:17;17.50;97.30
10459;DHT22;5277;48.722;8.736;2022-08-03T02:28:07;17.50;97.30
10459;DHT22;5277;48.722;8.736;2022-08-03T02:30:36;17.50;97.30
10459;DHT22;5277;48.722;8.736;2022-08-03T02:33:04;17.40;97.40
10459;DHT22;5277;48.722;8.736;2022-08-03T02:35:33;17.40;97.60
10459;DHT22;5277;48.722;8.736;2022-08-03T02:38:02;17.40;97.60
10459;DHT22;5277;48.722;8.736;2022-08-03T02:40:30;17.40;97.60
10459;DHT22;5277;48.722;8.736;2022-08-03T02:42:59;17.40;97.60
10459;DHT22;5277;48.722;8.736;2022-08-03T02:45:27;17.40;97.60
10459;DHT22;5277;48.722;8.736;2022-08-03T02:47:57;17.30;97.70
10459;DHT22;5277;48.722;8.736;2022-08-03T02:50:25;17.30;98.10
10459;DHT22;5277;48.722;8.736;2022-08-03T02:52:52;17.20;98.10
10459;DHT22;5277;48.722;8.736;2022-08-03T02:55:20;17.20;98.10
10459;DHT22;5277;48.722;8.736;2022-08-03T02:57:47;17.20;98.30
10459;DHT22;5277;48.722;8.736;2022-08-03T03:00:14;17.20;98.10
10459;DHT22;5277;48.722;8.736;2022-08-03T03:02:41;17.20;98.00
10459;DHT22;5277;48.722;8.736;2022-08-03T03:05:08;17.20;97.90
10459;DHT22;5277;48.722;8.736;2022-08-03T03:07:35;17.20;98.00
10459;DHT22;5277;48.722;8.736;2022-08-03T03:10:03;17.20;98.00
10459;DHT22;5277;48.722;8.736;2022-08-03T03:12:30;17.10;98.30
10459;DHT22;5277;48.722;8.736;2022-08-03T03:14:57;17.10;98.40
10459;DHT22;5277;48.722;8.736;2022-08-03T03:17:23;17.10;98.40
10459;DHT22;5277;48.722;8.736;2022-08-03T03:19:50;17.10;98.50
10459;DHT22;5277;48.722;8.736;2022-08-03T03:22:17;17.20;98.50
10459;DHT22;5277;48.722;8.736;2022-08-03T03:24:43;17.10;98.70
10459;DHT22;5277;48.722;8.736;2022-08-03T03:27:12;17.00;98.60
10459;DHT22;5277;48.722;8.736;2022-08-03T03:29:38;17.00;98.50
10459;DHT22;5277;48.722;8.736;2022-08-03T03:32:04;17.00;98.40
10459;DHT22;5277;48.722;8.736;2022-08-03T03:34:31;17.00;98.40
10459;DHT22;5277;48.722;8.736;2022-08-03T03:36:57;17.00;98.20
10459;DHT22;5277;48.722;8.736;2022-08-03T03:39:22;16.90;98.50
10459;DHT22;5277;48.722;8.736;2022-08-03T03:41:48;16.80;98.60
10459;DHT22;5277;48.722;8.736;2022-08-03T03:44:14;16.80;98.60
10459;DHT22;5277;48.722;8.736;2022-08-03T03:46:40;16.80;98.60
10459;DHT22;5277;48.722;8.736;2022-08-03T03:49:07;16.80;98.60
10459;DHT22;5277;48.722;8.736;2022-08-03T03:51:33;16.80;98.70
10459;DHT22;5277;48.722;8.736;2022-08-03T03:54:00;16.80;98.60
10459;DHT22;5277;48.722;8.736;2022-08-03T03:56:27;16.80;98.60
10459;DHT22;5277;48.722;8.736;2022-08-03T03:58:53;16.80;98.70
10459;DHT22;5277;48.722;8.736;2022-08-03T04:01:19;16.80;98.60
10459;DHT22;5277;48.722;8.736;2022-08-03T04:03:45;16.70;98.90
10459;DHT22;5277;48.722;8.736;2022-08-03T04:06:11;16.70;98.90
10459;DHT22;5277;48.722;8.736;2022-08-03T04:08:57;16.70;98.60
10459;DHT22;5277;48.722;8.736;2022-08-03T04:14:31;16.80;98.90
10459;DHT22;5277;48.722;8.736;2022-08-03T04:17:01;16.70;98.70
10459;DHT22;5277;48.722;8.736;2022-08-03T04:19:33;16.70;98.80
10459;DHT22;5277;48.722;8.736;2022-08-03T04:22:02;16.70;98.90
10459;DHT22;5277;48.722;8.736;2022-08-03T04:24:37;16.70;98.90
10459;DHT22;5277;48.722;8.736;2022-08-03T04:27:05;16.70;99.00
10459;DHT22;5277;48.722;8.736;2022-08-03T04:29:34;16.70;98.90
10459;DHT22;5277;48.722;8.736;2022-08-03T04:32:01;16.80;98.90
10459;DHT22;5277;48.722;8.736;2022-08-03T04:34:30;16.70;98.80
10459;DHT22;5277;48.722;8.736;2022-08-03T04:36:59;16.80;98.90
10459;DHT22;5277;48.722;8.736;2022-08-03T04:39:26;16.80;98.80
10459;DHT22;5277;48.722;8.736;2022-08-03T04:41:54;16.90;98.60
10459;DHT22;5277;48.722;8.736;2022-08-03T04:44:29;16.80;98.60
10459;DHT22;5277;48.722;8.736;2022-08-03T04:46:57;16.80;98.70
10459;DHT22;5277;48.722;8.736;2022-08-03T04:49:24;16.80;98.60
10459;DHT22;5277;48.722;8.736;2022-08-03T04:51:50;16.90;98.60
10459;DHT22;5277;48.722;8.736;2022-08-03T04:54:17;16.90;98.60
10459;DHT22;5277;48.722;8.736;2022-08-03T04:56:43;16.90;98.60
10459;DHT22;5277;48.722;8.736;2022-08-03T04:59:09;16.90;98.60
10459;DHT22;5277;48.722;8.736;2022-08-03T05:01:35;16.90;98.60
10459;DHT22;5277;48.722;8.736;2022-08-03T05:04:01;16.90;98.70
10459;DHT22;5277;48.722;8.736;2022-08-03T05:06:27;16.90;98.70
10459;DHT22;5277;48.722;8.736;2022-08-03T05:08:53;17.00;98.50
10459;DHT22;5277;48.722;8.736;2022-08-03T05:11:19;17.00;98.50
10459;DHT22;5277;48.722;8.736;2022-08-03T05:13:46;17.10;98.50
10459;DHT22;5277;48.722;8.736;2022-08-03T05:16:13;17.10;98.40
10459;DHT22;5277;48.722;8.736;2022-08-03T05:18:42;17.10;98.40
10459;DHT22;5277;48.722;8.736;2022-08-03T05:21:08;17.20;98.40
10459;DHT22;5277;48.722;8.736;2022-08-03T05:23:35;17.20;98.30
10459;DHT22;5277;48.722;8.736;2022-08-03T05:26:02;17.20;98.10
10459;DHT22;5277;48.722;8.736;2022-08-03T05:28:28;17.30;98.20
10459;DHT22;5277;48.722;8.736;2022-08-03T05:30:54;17.30;98.20
10459;DHT22;5277;48.722;8.736;2022-08-03T05:33:20;17.30;98.10
10459;DHT22;5277;48.722;8.736;2022-08-03T05:35:45;17.40;97.90
10459;DHT22;5277;48.722;8.736;2022-08-03T05:38:11;17.30;97.70
10459;DHT22;5277;48.722;8.736;2022-08-03T05:40:37;17.40;97.80
10459;DHT22;5277;48.722;8.736;2022-08-03T05:43:02;17.50;97.90
10459;DHT22;5277;48.722;8.736;2022-08-03T05:45:28;17.50;97.70
10459;DHT22;5277;48.722;8.736;2022-08-03T05:47:54;17.60;97.60
10459;DHT22;5277;48.722;8.736;2022-08-03T05:50:20;17.70;97.60
10459;DHT22;5277;48.722;8.736;2022-08-03T05:52:46;17.80;97.30
10459;DHT22;5277;48.722;8.736;2022-08-03T05:55:12;17.80;97.10
10459;DHT22;5277;48.722;8.736;2022-08-03T05:57:38;17.90;96.90
10459;DHT22;5277;48.722;8.736;2022-08-03T06:00:06;18.00;96.80
10459;DHT22;5277;48.722;8.736;2022-08-03T06:02:33;18.20;96.30
10459;DHT22;5277;48.722;8.736;2022-08-03T06:04:58;18.40;96.10
10459;DHT22;5277;48.722;8.736;2022-08-03T06:07:24;18.60;96.00
10459;DHT22;5277;48.722;8.736;2022-08-03T06:09:50;18.80;95.70
10459;DHT22;5277;48.722;8.736;2022-08-03T06:12:16;19.00;95.10
10459;DHT22;5277;48.722;8.736;2022-08-03T06:14:41;19.20;94.70
10459;DHT22;5277;48.722;8.736;2022-08-03T06:17:07;19.30;94.40
10459;DHT22;5277;48.722;8.736;2022-08-03T06:19:33;19.40;94.40
10459;DHT22;5277;48.722;8.736;2022-08-03T06:21:58;19.60;94.10
10459;DHT22;5277;48.722;8.736;2022-08-03T06:24:24;19.90;94.00
10459;DHT22;5277;48.722;8.736;2022-08-03T06:26:50;20.10;93.20
10459;DHT22;5277;48.722;8.736;2022-08-03T06:29:15;20.30;92.90
10459;DHT22;5277;48.722;8.736;2022-08-03T06:31:41;20.60;92.80
10459;DHT22;5277;48.722;8.736;2022-08-03T06:34:07;20.70;91.90
10459;DHT22;5277;48.722;8.736;2022-08-03T06:36:32;21.00;92.00
10459;DHT22;5277;48.722;8.736;2022-08-03T06:39:04;21.00;91.40
10459;DHT22;5277;48.722;8.736;2022-08-03T06:41:30;21.10;91.40
10459;DHT22;5277;48.722;8.736;2022-08-03T06:44:16;21.20;91.20
10459;DHT22;5277;48.722;8.736;2022-08-03T06:46:45;21.40;91.00
10459;DHT22;5277;48.722;8.736;2022-08-03T06:54:32;22.00;88.90
10459;DHT22;5277;48.722;8.736;2022-08-03T06:57:00;22.10;88.60
10459;DHT22;5277;48.722;8.736;2022-08-03T06:59:26;22.40;88.70
10459;DHT22;5277;48.722;8.736;2022-08-03T07:01:52;22.70;87.40
10459;DHT22;5277;48.722;8.736;2022-08-03T07:04:18;23.00;87.40
10459;DHT22;5277;48.722;8.736;2022-08-03T07:06:43;23.20;85.70
10459;DHT22;5277;48.722;8.736;2022-08-03T07:09:09;23.40;85.30
10459;DHT22;5277;48.722;8.736;2022-08-03T07:11:35;23.50;85.20
10459;DHT22;5277;48.722;8.736;2022-08-03T07:14:01;23.80;84.50
10459;DHT22;5277;48.722;8.736;2022-08-03T07:16:42;24.00;82.60
10459;DHT22;5277;48.722;8.736;2022-08-03T07:19:10;24.30;81.50
10459;DHT22;5277;48.722;8.736;2022-08-03T07:21:55;24.60;80.90
10459;DHT22;5277;48.722;8.736;2022-08-03T07:24:25;24.80;79.80
10459;DHT22;5277;48.722;8.736;2022-08-03T07:29:55;25.20;77.20
10459;DHT22;5277;48.722;8.736;2022-08-03T07:32:22;25.50;76.20
10459;DHT22;5277;48.722;8.736;2022-08-03T07:38:36;25.70;75.00
10459;DHT22;5277;48.722;8.736;2022-08-03T07:41:40;26.00;73.90
10459;DHT22;5277;48.722;8.736;2022-08-03T07:44:06;26.40;72.40
10459;DHT22;5277;48.722;8.736;2022-08-03T07:46:38;26.80;71.40
10459;DHT22;5277;48.722;8.736;2022-08-03T07:49:41;27.10;69.60
10459;DHT22;5277;48.722;8.736;2022-08-03T07:52:33;27.40;69.10
10459;DHT22;5277;48.722;8.736;2022-08-03T07:55:38;27.60;67.60
10459;DHT22;5277;48.722;8.736;2022-08-03T07:58:24;27.90;67.80
10459;DHT22;5277;48.722;8.736;2022-08-03T08:00:52;28.30;66.50
10459;DHT22;5277;48.722;8.736;2022-08-03T08:03:35;28.50;65.30
10459;DHT22;5277;48.722;8.736;2022-08-03T08:06:23;28.70;65.90
10459;DHT22;5277;48.722;8.736;2022-08-03T08:08:58;29.10;64.60
10459;DHT22;5277;48.722;8.736;2022-08-03T08:11:41;29.30;63.60
10459;DHT22;5277;48.722;8.736;2022-08-03T08:14:09;29.60;62.30
10459;DHT22;5277;48.722;8.736;2022-08-03T08:16:38;29.80;61.50
10459;DHT22;5277;48.722;8.736;2022-08-03T08:19:06;30.10;60.20
10459;DHT22;5277;48.722;8.736;2022-08-03T08:21:33;30.30;58.40
10459;DHT22;5277;48.722;8.736;2022-08-03T08:23:59;30.50;57.10
10459;DHT22;5277;48.722;8.736;2022-08-03T08:26:25;30.70;57.00
10459;DHT22;5277;48.722;8.736;2022-08-03T08:28:51;30.80;56.40
10459;DHT22;5277;48.722;8.736;2022-08-03T08:31:32;30.90;55.70
10459;DHT22;5277;48.722;8.736;2022-08-03T08:33:58;31.10;55.50
10459;DHT22;5277;48.722;8.736;2022-08-03T08:36:27;31.10;54.70
10459;DHT22;5277;48.722;8.736;2022-08-03T08:38:56;31.40;54.50
10459;DHT22;5277;48.722;8.736;2022-08-03T08:41:23;31.50;54.10
10459;DHT22;5277;48.722;8.736;2022-08-03T08:43:49;31.60;52.60
10459;DHT22;5277;48.722;8.736;2022-08-03T08:46:15;31.80;52.80
10459;DHT22;5277;48.722;8.736;2022-08-03T08:48:48;31.90;51.90
10459;DHT22;5277;48.722;8.736;2022-08-03T08:51:18;32.10;51.70
10459;DHT22;5277;48.722;8.736;2022-08-03T08:53:51;32.20;51.30
10459;DHT22;5277;48.722;8.736;2022-08-03T08:56:17;32.40;50.90
10459;DHT22;5277;48.722;8.736;2022-08-03T08:58:51;32.50;49.60
10459;DHT22;5277;48.722;8.736;2022-08-03T09:01:18;32.70;49.40
10459;DHT22;5277;48.722;8.736;2022-08-03T09:03:45;32.80;48.60
10459;DHT22;5277;48.722;8.736;2022-08-03T09:06:11;32.80;48.10
10459;DHT22;5277;48.722;8.736;2022-08-03T09:08:37;32.80;46.20
10459;DHT22;5277;48.722;8.736;2022-08-03T09:11:03;32.90;47.00
10459;DHT22;5277;48.722;8.736;2022-08-03T09:13:32;33.00;47.30
10459;DHT22;5277;48.722;8.736;2022-08-03T09:16:14;33.10;46.90
10459;DHT22;5277;48.722;8.736;2022-08-03T09:19:11;33.30;47.30
10459;DHT22;5277;48.722;8.736;2022-08-03T09:21:43;33.50;46.70
10459;DHT22;5277;48.722;8.736;2022-08-03T09:24:09;33.60;45.10
10459;DHT22;5277;48.722;8.736;2022-08-03T09:26:39;33.70;45.90
10459;DHT22;5277;48.722;8.736;2022-08-03T09:29:19;33.80;45.10
10459;DHT22;5277;48.722;8.736;2022-08-03T09:31:49;34.10;45.40
10459;DHT22;5277;48.722;8.736;2022-08-03T09:34:25;34.20;43.70
10459;DHT22;5277;48.722;8.736;2022-08-03T09:36:54;34.30;43.70
10459;DHT22;5277;48.722;8.736;2022-08-03T09:39:27;34.60;43.10
10459;DHT22;5277;48.722;8.736;2022-08-03T09:48:49;35.10;41.80
10459;DHT22;5277;48.722;8.736;2022-08-03T09:51:26;35.50;40.90
10459;DHT22;5277;48.722;8.736;2022-08-03T09:53:51;35.60;40.50
10459;DHT22;5277;48.722;8.736;2022-08-03T09:56:17;35.90;40.50
10459;DHT22;5277;48.722;8.736;2022-08-03T09:58:46;36.10;39.90
10459;DHT22;5277;48.722;8.736;2022-08-03T10:01:12;36.30;39.80
10459;DHT22;5277;48.722;8.736;2022-08-03T10:04:14;36.70;39.00
10459;DHT22;5277;48.722;8.736;2022-08-03T10:06:45;37.20;37.90
10459;DHT22;5277;48.722;8.736;2022-08-03T10:09:28;37.30;37.90
10459;DHT22;5277;48.722;8.736;2022-08-03T10:12:06;37.70;38.00
10459;DHT22;5277;48.722;8.736;2022-08-03T10:14:38;37.90;36.90
10459;DHT22;5277;48.722;8.736;2022-08-03T10:17:04;38.30;36.30
10459;DHT22;5277;48.722;8.736;2022-08-03T10:19:30;38.60;36.30
10459;DHT22;5277;48.722;8.736;2022-08-03T10:22:02;38.90;36.20
10459;DHT22;5277;48.722;8.736;2022-08-03T10:24:29;39.20;35.40
10459;DHT22;5277;48.722;8.736;2022-08-03T10:27:06;39.70;35.50
10459;DHT22;5277;48.722;8.736;2022-08-03T10:29:40;40.10;35.10
10459;DHT22;5277;48.722;8.736;2022-08-03T10:32:17;40.60;34.00
10459;DHT22;5277;48.722;8.736;2022-08-03T10:34:44;40.80;33.20
10459;DHT22;5277;48.722;8.736;2022-08-03T10:37:14;40.90;33.30
10459;DHT22;5277;48.722;8.736;2022-08-03T10:39:43;41.40;32.40
10459;DHT22;5277;48.722;8.736;2022-08-03T10:42:20;41.40;32.00
10459;DHT22;5277;48.722;8.736;2022-08-03T10:45:05;42.00;31.50
10459;DHT22;5277;48.722;8.736;2022-08-03T10:47:32;42.50;30.90
10459;DHT22;5277;48.722;8.736;2022-08-03T10:49:59;42.40;31.00
10459;DHT22;5277;48.722;8.736;2022-08-03T10:52:25;42.50;30.30
10459;DHT22;5277;48.722;8.736;2022-08-03T10:54:51;42.90;30.40
10459;DHT22;5277;48.722;8.736;2022-08-03T10:57:50;42.90;30.10
10459;DHT22;5277;48.722;8.736;2022-08-03T11:00:22;43.20;29.80
10459;DHT22;5277;48.722;8.736;2022-08-03T11:03:06;43.30;30.00
10459;DHT22;5277;48.722;8.736;2022-08-03T11:09:17;43.70;29.10
10459;DHT22;5277;48.722;8.736;2022-08-03T11:11:47;44.20;28.60
10459;DHT22;5277;48.722;8.736;2022-08-03T11:17:06;44.90;28.10
10459;DHT22;5277;48.722;8.736;2022-08-03T11:20:02;45.30;28.00
10459;DHT22;5277;48.722;8.736;2022-08-03T11:22:50;45.40;27.90
10459;DHT22;5277;48.722;8.736;2022-08-03T11:25:18;45.70;27.10
10459;DHT22;5277;48.722;8.736;2022-08-03T11:27:44;46.00;27.10
10459;DHT22;5277;48.722;8.736;2022-08-03T11:30:24;46.00;26.70
10459;DHT22;5277;48.722;8.736;2022-08-03T11:32:52;46.40;26.40
10459;DHT22;5277;48.722;8.736;2022-08-03T11:35:30;46.20;26.30
10459;DHT22;5277;48.722;8.736;2022-08-03T11:49:06;46.80;25.80
10459;DHT22;5277;48.722;8.736;2022-08-03T11:51:40;47.10;25.60
10459;DHT22;5277;48.722;8.736;2022-08-03T11:54:12;47.40;24.80
10459;DHT22;5277;48.722;8.736;2022-08-03T11:56:51;47.30;25.30
10459;DHT22;5277;48.722;8.736;2022-08-03T12:06:39;48.10;24.90
10459;DHT22;5277;48.722;8.736;2022-08-03T12:10:19;48.60;24.50
10459;DHT22;5277;48.722;8.736;2022-08-03T12:27:11;48.00;24.20
10459;DHT22;5277;48.722;8.736;2022-08-03T12:29:56;48.10;24.90
10459;DHT22;5277;48.722;8.736;2022-08-03T12:36:20;47.60;24.40
10459;DHT22;5277;48.722;8.736;2022-08-03T12:39:07;47.40;24.60
10459;DHT22;5277;48.722;8.736;2022-08-03T12:42:16;47.10;24.70
10459;DHT22;5277;48.722;8.736;2022-08-03T12:45:24;47.90;24.80
10459;DHT22;5277;48.722;8.736;2022-08-03T12:51:30;48.40;24.10
10459;DHT22;5277;48.722;8.736;2022-08-03T12:54:38;48.50;24.10
10459;DHT22;5277;48.722;8.736;2022-08-03T12:57:37;47.40;24.10
10459;DHT22;5277;48.722;8.736;2022-08-03T13:03:47;44.10;25.60
10459;DHT22;5277;48.722;8.736;2022-08-03T13:09:55;40.60;28.80
10459;DHT22;5277;48.722;8.736;2022-08-03T13:13:01;39.50;30.20
10459;DHT22;5277;48.722;8.736;2022-08-03T13:15:48;38.30;33.00
10459;DHT22;5277;48.722;8.736;2022-08-03T13:21:41;36.90;33.00
10459;DHT22;5277;48.722;8.736;2022-08-03T13:24:18;35.90;35.30
10459;DHT22;5277;48.722;8.736;2022-08-03T13:27:38;35.40;35.20
10459;DHT22;5277;48.722;8.736;2022-08-03T13:30:36;34.90;35.80
10459;DHT22;5277;48.722;8.736;2022-08-03T13:33:04;34.50;38.00
10459;DHT22;5277;48.722;8.736;2022-08-03T13:35:40;34.20;38.20
10459;DHT22;5277;48.722;8.736;2022-08-03T13:38:06;34.00;38.50
10459;DHT22;5277;48.722;8.736;2022-08-03T13:41:04;33.80;39.20
10459;DHT22;5277;48.722;8.736;2022-08-03T13:44:05;33.60;39.90
10459;DHT22;5277;48.722;8.736;2022-08-03T13:57:09;32.70;40.00
10459;DHT22;5277;48.722;8.736;2022-08-03T13:59:39;32.60;41.40
10459;DHT22;5277;48.722;8.736;2022-08-03T14:02:13;32.50;41.00
10459;DHT22;5277;48.722;8.736;2022-08-03T14:04:58;32.50;41.40
10459;DHT22;5277;48.722;8.736;2022-08-03T14:13:55;32.30;42.40
10459;DHT22;5277;48.722;8.736;2022-08-03T14:16:20;32.30;41.70
10459;DHT22;5277;48.722;8.736;2022-08-03T14:18:46;32.20;43.10
10459;DHT22;5277;48.722;8.736;2022-08-03T14:21:12;32.10;43.60
10459;DHT22;5277;48.722;8.736;2022-08-03T14:23:38;31.90;43.30
10459;DHT22;5277;48.722;8.736;2022-08-03T14:26:05;31.80;43.20
10459;DHT22;5277;48.722;8.736;2022-08-03T14:28:31;31.90;43.20
10459;DHT22;5277;48.722;8.736;2022-08-03T14:30:57;31.90;43.80
10459;DHT22;5277;48.722;8.736;2022-08-03T14:33:23;31.90;43.70
10459;DHT22;5277;48.722;8.736;2022-08-03T14:35:50;31.90;43.10
10459;DHT22;5277;48.722;8.736;2022-08-03T14:38:16;31.90;42.70
10459;DHT22;5277;48.722;8.736;2022-08-03T14:40:42;31.80;41.40
10459;DHT22;5277;48.722;8.736;2022-08-03T14:43:08;31.80;40.80
10459;DHT22;5277;48.722;8.736;2022-08-03T14:45:34;31.80;43.00
10459;DHT22;5277;48.722;8.736;2022-08-03T14:48:03;31.70;42.00
10459;DHT22;5277;48.722;8.736;2022-08-03T14:50:29;31.70;43.50
10459;DHT22;5277;48.722;8.736;2022-08-03T14:52:55;31.60;43.80
10459;DHT22;5277;48.722;8.736;2022-08-03T14:55:21;31.60;45.10
10459;DHT22;5277;48.722;8.736;2022-08-03T14:57:47;31.50;46.70
10459;DHT22;5277;48.722;8.736;2022-08-03T15:00:13;31.40;45.40
10459;DHT22;5277;48.722;8.736;2022-08-03T15:17:37;31.40;46.20
10459;DHT22;5277;48.722;8.736;2022-08-03T15:20:23;31.40;45.90
10459;DHT22;5277;48.722;8.736;2022-08-03T15:22:53;31.30;46.20
10459;DHT22;5277;48.722;8.736;2022-08-03T15:32:27;31.20;45.20
10459;DHT22;5277;48.722;8.736;2022-08-03T15:35:31;31.20;44.00
10459;DHT22;5277;48.722;8.736;2022-08-03T16:01:52;30.70;46.20
10459;DHT22;5277;48.722;8.736;2022-08-03T16:04:21;30.80;45.90
10459;DHT22;5277;48.722;8.736;2022-08-03T16:21:13;30.60;46.40
10459;DHT22;5277;48.722;8.736;2022-08-03T16:23:39;30.60;45.80
10459;DHT22;5277;48.722;8.736;2022-08-03T16:26:05;30.60;46.00
10459;DHT22;5277;48.722;8.736;2022-08-03T16:28:32;30.70;45.70
10459;DHT22;5277;48.722;8.736;2022-08-03T16:31:03;30.60;46.20
10459;DHT22;5277;48.722;8.736;2022-08-03T16:33:29;30.60;46.30
10459;DHT22;5277;48.722;8.736;2022-08-03T16:35:55;30.50;46.60
10459;DHT22;5277;48.722;8.736;2022-08-03T16:38:21;30.40;48.20
10459;DHT22;5277;48.722;8.736;2022-08-03T16:40:47;30.30;46.70
10459;DHT22;5277;48.722;8.736;2022-08-03T16:43:17;30.30;46.90
10459;DHT22;5277;48.722;8.736;2022-08-03T16:45:43;30.30;47.00
10459;DHT22;5277;48.722;8.736;2022-08-03T16:48:09;30.30;48.20
10459;DHT22;5277;48.722;8.736;2022-08-03T16:50:36;30.30;48.10
10459;DHT22;5277;48.722;8.736;2022-08-03T16:53:06;30.20;48.70
10459;DHT22;5277;48.722;8.736;2022-08-03T16:55:36;30.10;47.80
10459;DHT22;5277;48.722;8.736;2022-08-03T16:58:03;30.10;47.50
10459;DHT22;5277;48.722;8.736;2022-08-03T17:00:31;30.00;47.60
10459;DHT22;5277;48.722;8.736;2022-08-03T17:02:58;30.00;47.60
10459;DHT22;5277;48.722;8.736;2022-08-03T17:05:25;29.90;48.20
10459;DHT22;5277;48.722;8.736;2022-08-03T17:07:51;29.90;47.90
10459;DHT22;5277;48.722;8.736;2022-08-03T17:10:17;29.90;49.10
10459;DHT22;5277;48.722;8.736;2022-08-03T17:12:43;29.90;48.70
10459;DHT22;5277;48.722;8.736;2022-08-03T17:15:09;29.90;48.80
10459;DHT22;5277;48.722;8.736;2022-08-03T17:17:35;29.90;50.30
10459;DHT22;5277;48.722;8.736;2022-08-03T17:20:09;29.90;49.10
10459;DHT22;5277;48.722;8.736;2022-08-03T17:22:49;29.80;49.30
10459;DHT22;5277;48.722;8.736;2022-08-03T17:25:17;29.90;49.00
10459;DHT22;5277;48.722;8.736;2022-08-03T17:27:45;29.80;49.30
10459;DHT22;5277;48.722;8.736;2022-08-03T17:30:14;29.80;48.10
10459;DHT22;5277;48.722;8.736;2022-08-03T17:32:43;29.90;47.60
10459;DHT22;5277;48.722;8.736;2022-08-03T17:35:12;29.90;48.60
10459;DHT22;5277;48.722;8.736;2022-08-03T17:37:39;29.90;49.40
10459;DHT22;5277;48.722;8.736;2022-08-03T17:40:06;29.80;49.30
10459;DHT22;5277;48.722;8.736;2022-08-03T17:42:32;29.80;50.10
10459;DHT22;5277;48.722;8.736;2022-08-03T17:45:00;29.80;50.30
10459;DHT22;5277;48.722;8.736;2022-08-03T17:47:26;29.80;50.00
10459;DHT22;5277;48.722;8.736;2022-08-03T17:49:51;29.80;49.90
10459;DHT22;5277;48.722;8.736;2022-08-03T17:52:38;29.70;50.30
10459;DHT22;5277;48.722;8.736;2022-08-03T17:55:16;29.80;50.70
10459;DHT22;5277;48.722;8.736;2022-08-03T17:58:02;29.70;50.60
10459;DHT22;5277;48.722;8.736;2022-08-03T18:00:29;29.60;51.20
10459;DHT22;5277;48.722;8.736;2022-08-03T18:03:36;29.60;50.50
10459;DHT22;5277;48.722;8.736;2022-08-03T18:06:07;29.50;51.50
10459;DHT22;5277;48.722;8.736;2022-08-03T18:08:37;29.40;52.10
10459;DHT22;5277;48.722;8.736;2022-08-03T18:11:08;29.30;52.90
10459;DHT22;5277;48.722;8.736;2022-08-03T18:13:50;29.30;51.20
10459;DHT22;5277;48.722;8.736;2022-08-03T18:16:27;29.10;52.80
10459;DHT22;5277;48.722;8.736;2022-08-03T18:18:59;29.10;51.60
10459;DHT22;5277;48.722;8.736;2022-08-03T18:21:25;29.00;52.30
10459;DHT22;5277;48.722;8.736;2022-08-03T18:23:54;29.10;53.30
10459;DHT22;5277;48.722;8.736;2022-08-03T18:26:21;29.00;54.50
10459;DHT22;5277;48.722;8.736;2022-08-03T18:28:48;28.90;53.80
10459;DHT22;5277;48.722;8.736;2022-08-03T18:31:15;28.90;54.60
10459;DHT22;5277;48.722;8.736;2022-08-03T18:33:41;28.80;54.30
10459;DHT22;5277;48.722;8.736;2022-08-03T18:36:11;28.80;54.60
10459;DHT22;5277;48.722;8.736;2022-08-03T18:38:41;28.80;55.30
10459;DHT22;5277;48.722;8.736;2022-08-03T18:41:07;28.60;55.60
10459;DHT22;5277;48.722;8.736;2022-08-03T18:43:34;28.60;55.30
10459;DHT22;5277;48.722;8.736;2022-08-03T18:46:05;28.50;55.60
10459;DHT22;5277;48.722;8.736;2022-08-03T18:51:17;28.20;56.20
10459;DHT22;5277;48.722;8.736;2022-08-03T18:53:58;28.20;55.90
10459;DHT22;5277;48.722;8.736;2022-08-03T18:56:43;28.10;56.80
10459;DHT22;5277;48.722;8.736;2022-08-03T18:59:17;28.10;56.20
10459;DHT22;5277;48.722;8.736;2022-08-03T19:01:50;28.00;56.70
10459;DHT22;5277;48.722;8.736;2022-08-03T19:04:32;27.90;57.60
10459;DHT22;5277;48.722;8.736;2022-08-03T19:07:02;27.70;58.40